createdAt,value
2022-08-11T00:04:40.680Z,102331.78
2022-08-11T00:09:39.349Z,102331.06
2022-08-11T00:14:37.307Z,102327.59
2022-08-11T00:20:12.894Z,102335.56
2022-08-11T00:24:53.973Z,102329.53
2022-08-11T00:29:55.027Z,102327.94
2022-08-11T00:34:47.944Z,102326.31
2022-08-11T00:39:52.871Z,102328.22
2022-08-11T00:44:56.943Z,102329.97
2022-08-11T00:49:55.458Z,102331.81
2022-08-11T00:55:02.423Z,102328.41
2022-08-11T01:00:05.567Z,102332.00
2022-08-11T01:05:12.992Z,102338.28
2022-08-11T01:10:10.065Z,102336.72
2022-08-11T01:15:14.464Z,102327.31
2022-08-11T01:20:48.703Z,102323.03
2022-08-11T01:25:57.515Z,102325.69
2022-08-11T01:31:08.527Z,102322.31
2022-08-11T01:36:25.955Z,102318.09
2022-08-11T01:41:26.647Z,102315.59
2022-08-11T01:46:19.105Z,102313.84
2022-08-11T01:51:17.503Z,102309.56
2022-08-11T01:56:15.932Z,102321.91
2022-08-11T02:01:14.049Z,102325.44
2022-08-11T02:06:25.804Z,102321.09
2022-08-11T02:11:35.479Z,102323.00
2022-08-11T02:16:37.640Z,102317.03
2022-08-11T02:21:43.464Z,102321.53
2022-08-11T02:26:42.488Z,102314.56
2022-08-11T02:32:24.343Z,102310.22
2022-08-11T02:37:16.168Z,102304.16
2022-08-11T02:42:32.396Z,102315.63
2022-08-11T02:47:39.712Z,102304.28
2022-08-11T02:52:34.560Z,102303.47
2022-08-11T02:57:32.289Z,102307.91
2022-08-11T03:02:41.318Z,102296.66
2022-08-11T03:07:35.168Z,102306.31
2022-08-11T03:12:44.563Z,102308.94
2022-08-11T03:17:37.147Z,102304.66
2022-08-11T03:22:28.317Z,102296.81
2022-08-11T03:27:26.958Z,102302.19
2022-08-11T03:32:27.629Z,102305.75
2022-08-11T03:37:43.044Z,102306.69
2022-08-11T03:42:36.817Z,102299.75
2022-08-11T03:47:35.355Z,102297.13
2022-08-11T03:52:29.891Z,102291.94
2022-08-11T03:57:36.682Z,102297.22
2022-08-11T04:02:43.996Z,102288.53
2022-08-11T04:07:48.360Z,102289.38
2022-08-11T04:13:03.307Z,102292.97
2022-08-11T04:18:10.701Z,102287.75
2022-08-11T04:24:34.468Z,102293.00
2022-08-11T04:28:45.703Z,102286.88
2022-08-11T04:33:48.521Z,102285.22
2022-08-11T04:38:51.981Z,102286.97
2022-08-11T04:44:05.526Z,102287.03
2022-08-11T04:49:26.251Z,102288.75
2022-08-11T04:54:41.845Z,102282.59
2022-08-11T04:59:54.442Z,102294.81
2022-08-11T05:05:06.745Z,102291.34
2022-08-11T05:10:12.628Z,102291.34
2022-08-11T05:15:16.861Z,102288.69
2022-08-11T05:20:24.656Z,102294.81
2022-08-11T05:26:45.212Z,102292.19
2022-08-11T05:30:55.895Z,102270.44
2022-08-11T05:36:00.380Z,102291.38
2022-08-11T05:41:05.660Z,102292.22
2022-08-11T05:46:13.649Z,102291.38
2022-08-11T05:51:22.040Z,102301.00
2022-08-11T05:56:20.161Z,102301.84
2022-08-11T06:01:10.108Z,102302.69
2022-08-11T06:06:00.111Z,102297.44
2022-08-11T06:10:52.524Z,102299.19
2022-08-11T06:15:47.383Z,102292.19
2022-08-11T06:20:48.540Z,102298.25
2022-08-11T06:25:39.463Z,102302.59
2022-08-11T06:30:42.692Z,102312.13
2022-08-11T06:35:39.000Z,102308.59
2022-08-11T06:40:36.129Z,102309.44
2022-08-11T06:45:30.987Z,102307.63
2022-08-11T06:50:36.792Z,102311.91
2022-08-11T06:55:56.215Z,102313.59
2022-08-11T07:00:49.166Z,102317.91
2022-08-11T07:05:47.909Z,102316.09
2022-08-11T07:11:07.045Z,102314.28
2022-08-11T07:16:12.424Z,102304.53
2022-08-11T07:22:01.200Z,102315.81
2022-08-11T07:26:47.999Z,102316.56
2022-08-11T07:31:42.387Z,102309.41
2022-08-11T07:36:35.264Z,102316.25
2022-08-11T07:41:25.976Z,102318.75
2022-08-11T07:46:28.046Z,102307.28
2022-08-11T07:51:33.542Z,102300.91
2022-08-11T07:56:47.253Z,102302.38
2022-08-11T08:01:48.415Z,102302.19
2022-08-11T08:06:52.985Z,102307.66
2022-08-11T08:12:00.005Z,102292.59
2022-08-11T08:17:02.692Z,102310.66
2022-08-11T08:21:53.653Z,102312.00
2022-08-11T08:27:03.770Z,102306.53
2022-08-11T08:31:54.611Z,102314.16
2022-08-11T08:36:46.423Z,102324.59
2022-08-11T08:41:41.255Z,102306.06
2022-08-11T08:46:39.653Z,102299.97
2022-08-11T08:51:58.611Z,102298.78
2022-08-11T08:56:52.575Z,102305.25
2022-08-11T09:01:50.836Z,102307.38
2022-08-11T09:06:43.891Z,102306.06
2022-08-11T09:11:56.268Z,102297.50
2022-08-11T09:16:50.497Z,102295.63
2022-08-11T09:21:48.438Z,102295.22
2022-08-11T09:27:04.046Z,102287.81
2022-08-11T09:31:57.173Z,102293.59
2022-08-11T09:37:00.163Z,102276.97
2022-08-11T09:42:00.661Z,102280.91
2022-08-11T09:46:54.012Z,102278.97
2022-08-11T09:51:50.562Z,102262.63
2022-08-11T09:57:10.715Z,102275.75
2022-08-11T10:02:07.123Z,102265.88
2022-08-11T10:07:07.100Z,102253.34
2022-08-11T10:11:59.785Z,102259.44
2022-08-11T10:16:49.714Z,102265.91
2022-08-11T10:21:40.494Z,102250.69
2022-08-11T10:26:46.151Z,102254.22
2022-08-11T10:31:57.704Z,102244.78
2022-08-11T10:36:49.769Z,102244.28
2022-08-11T10:42:06.655Z,102236.56
2022-08-11T10:47:12.267Z,102245.38
2022-08-11T10:52:16.111Z,102243.25
2022-08-11T10:57:21.680Z,102227.84
2022-08-11T11:02:13.892Z,102235.78
2022-08-11T11:07:08.710Z,102229.28
2022-08-11T11:12:14.293Z,102210.22
2022-08-11T11:17:20.280Z,102221.47
2022-08-11T11:22:22.463Z,102217.44
2022-08-11T11:27:17.637Z,102217.75
2022-08-11T11:32:19.648Z,102211.06
2022-08-11T11:37:09.211Z,102213.94
2022-08-11T11:42:00.001Z,102213.63
2022-08-11T11:46:53.127Z,102208.50
2022-08-11T11:51:49.848Z,102208.66
2022-08-11T11:56:40.709Z,102202.84
2022-08-11T12:01:29.091Z,102194.44
2022-08-11T12:06:20.974Z,102194.25
2022-08-11T12:11:26.848Z,102190.50
2022-08-11T12:16:34.444Z,102186.97
2022-08-11T12:21:26.273Z,102180.50
2022-08-11T12:26:32.998Z,102175.66
2022-08-11T12:31:26.080Z,102171.91
2022-08-11T12:36:17.243Z,102162.47
2022-08-11T12:41:23.732Z,102159.78
2022-08-11T12:46:21.648Z,102150.69
2022-08-11T12:51:26.631Z,102152.00
2022-08-11T12:56:28.544Z,102148.00
2022-08-11T13:01:34.964Z,102140.38
2022-08-11T13:06:26.400Z,102145.38
2022-08-11T13:11:55.651Z,102129.09
2022-08-11T13:16:55.755Z,102127.41
2022-08-11T13:21:45.698Z,102120.66
2022-08-11T13:26:43.577Z,102120.84
2022-08-11T13:31:37.974Z,102122.69
2022-08-11T13:36:30.351Z,102117.25
2022-08-11T13:41:33.255Z,102112.97
2022-08-11T13:46:24.433Z,102112.97
2022-08-11T13:51:35.104Z,102106.44
2022-08-11T13:56:28.129Z,102106.63
2022-08-11T14:02:19.887Z,102101.81
2022-08-11T14:06:27.922Z,102091.84
2022-08-11T14:12:22.402Z,102087.28
2022-08-11T14:16:45.505Z,102081.06
2022-08-11T14:21:54.103Z,102081.59
2022-08-11T14:26:45.329Z,102071.31
2022-08-11T14:31:36.433Z,102073.88
2022-08-11T14:36:30.418Z,102069.94
2022-08-11T14:41:33.355Z,102071.81
2022-08-11T14:46:35.362Z,102057.69
2022-08-11T14:51:27.521Z,102060.69
2022-08-11T14:56:32.948Z,102057.81
2022-08-11T15:01:35.096Z,102047.00
2022-08-11T15:06:24.979Z,102044.97
2022-08-11T15:11:28.080Z,102041.22
2022-08-11T15:16:32.760Z,102032.22
2022-08-11T15:21:34.737Z,102028.78
2022-08-11T15:26:49.651Z,102026.31
2022-08-11T15:31:55.110Z,102029.41
2022-08-11T15:37:08.773Z,102016.03
2022-08-11T15:42:16.688Z,102021.06
2022-08-11T15:47:09.215Z,102006.09
2022-08-11T15:52:10.396Z,102006.94
2022-08-11T15:57:01.801Z,102000.72
2022-08-11T16:02:04.327Z,101998.59
2022-08-11T16:07:02.649Z,101993.31
2022-08-11T16:11:54.042Z,101988.19
2022-08-11T16:16:44.540Z,101984.44
2022-08-11T16:21:36.632Z,101985.97
2022-08-11T16:27:10.952Z,101983.28
2022-08-11T16:31:40.908Z,101977.06
2022-08-11T16:36:53.013Z,101970.34
2022-08-11T16:41:57.864Z,101973.56
2022-08-11T16:46:59.812Z,101967.19
2022-08-11T16:51:50.104Z,101969.50
2022-08-11T16:56:41.546Z,101963.59
2022-08-11T17:01:35.515Z,101962.66
2022-08-11T17:06:38.506Z,101959.72
2022-08-11T17:11:41.828Z,101950.59
2022-08-11T17:16:35.825Z,101939.97
2022-08-11T17:21:26.489Z,101952.00
2022-08-11T17:26:17.191Z,101958.03
2022-08-11T17:31:22.735Z,101952.78
2022-08-11T17:36:16.245Z,101948.72
2022-08-11T17:41:23.035Z,101956.03
2022-08-11T17:46:25.826Z,101953.28
2022-08-11T17:51:40.875Z,101960.31
2022-08-11T17:56:46.404Z,101960.88
2022-08-11T18:01:36.711Z,101959.63
2022-08-11T18:06:34.098Z,101959.66
2022-08-11T18:12:07.065Z,101962.19
2022-08-11T18:17:02.632Z,101957.97
2022-08-11T18:22:28.549Z,101967.66
2022-08-11T18:27:32.137Z,101963.03
2022-08-11T18:32:53.726Z,101965.56
2022-08-11T18:38:02.761Z,101971.56
2022-08-11T18:43:05.643Z,101968.31
2022-08-11T18:48:11.368Z,101969.34
2022-08-11T18:53:16.603Z,101974.31
2022-08-11T18:58:20.328Z,101976.34
2022-08-11T19:03:22.518Z,101980.56
2022-08-11T19:08:27.992Z,101981.97
2022-08-11T19:13:30.755Z,101985.25
2022-08-11T19:18:34.842Z,101992.38
2022-08-11T19:23:41.567Z,101992.34
2022-08-11T19:28:44.308Z,102006.44
2022-08-11T19:34:00.211Z,101996.56
2022-08-11T19:39:12.612Z,102004.69
2022-08-11T19:44:16.691Z,102003.53
2022-08-11T19:49:18.819Z,102012.72
2022-08-11T19:54:23.727Z,102013.53
2022-08-11T19:59:26.524Z,102017.69
2022-08-11T20:04:28.860Z,102020.06
2022-08-11T20:10:04.663Z,102025.91
2022-08-11T20:15:02.543Z,102028.13
2022-08-11T20:20:05.754Z,102019.56
2022-08-11T20:25:13.627Z,102028.91
2022-08-11T20:30:17.018Z,102020.44
2022-08-11T20:35:20.358Z,102027.78
2022-08-11T20:40:26.379Z,102020.25
2022-08-11T20:45:30.191Z,102029.50
2022-08-11T20:50:32.339Z,102027.00
2022-08-11T20:55:51.519Z,102030.81
2022-08-11T21:00:55.902Z,102028.72
2022-08-11T21:06:10.313Z,102024.59
2022-08-11T21:11:15.553Z,102025.84
2022-08-11T21:16:31.397Z,102026.69
2022-08-11T21:21:45.834Z,102020.66
2022-08-11T21:26:51.248Z,102020.81
2022-08-11T21:31:53.525Z,102021.97
2022-08-11T21:36:56.286Z,102016.94
2022-08-11T21:42:01.842Z,102019.09
2022-08-11T21:47:04.289Z,102019.44
2022-08-11T21:52:06.282Z,102016.97
2022-08-11T21:57:11.685Z,102015.47
2022-08-11T22:02:13.762Z,102020.00
2022-08-11T22:07:15.819Z,102014.81
2022-08-11T22:12:30.248Z,102015.16
2022-08-11T22:17:36.459Z,102016.19
2022-08-11T22:22:52.160Z,102018.06
2022-08-11T22:27:58.521Z,102023.50
2022-08-11T22:33:00.449Z,102020.28
2022-08-11T22:38:02.647Z,102019.81
2022-08-11T22:43:07.481Z,102018.22
2022-08-11T22:48:10.385Z,102023.63
2022-08-11T22:53:13.034Z,102014.13
2022-08-11T22:58:18.045Z,102016.84
2022-08-11T23:03:37.155Z,102024.03
2022-08-11T23:08:40.397Z,102019.09
2022-08-11T23:13:45.693Z,102016.72
2022-08-11T23:18:47.962Z,102013.44
2022-08-11T23:23:51.283Z,102016.34
2022-08-11T23:28:56.816Z,102014.03
2022-08-11T23:34:08.860Z,102016.06
2022-08-11T23:39:31.039Z,102016.28
2022-08-11T23:44:35.621Z,102009.41
2022-08-11T23:49:37.847Z,102017.53
2022-08-11T23:54:40.442Z,102008.81
2022-08-11T23:59:44.976Z,102015.06
